sensor_id;sensor_type;location;lat;lon;timestamp;P1;durP1;ratioP1;P2;durP2;ratioP2
18322;SDS011;9287;49.456;11.064;2023-04-25T00:00:13;2.87;;;2.57;;
18322;SDS011;9287;49.456;11.064;2023-04-25T00:02:41;3.33;;;2.67;;
18322;SDS011;9287;49.456;11.064;2023-04-25T00:05:15;3.80;;;2.80;;
18322;SDS011;9287;49.456;11.064;2023-04-25T00:07:43;2.83;;;2.63;;
18322;SDS011;9287;49.456;11.064;2023-04-25T00:10:15;3.17;;;2.80;;
18322;SDS011;9287;49.456;11.064;2023-04-25T00:12:45;2.47;;;2.27;;
18322;SDS011;9287;49.456;11.064;2023-04-25T00:15:14;2.77;;;2.57;;
18322;SDS011;9287;49.456;11.064;2023-04-25T00:17:42;3.67;;;3.03;;
18322;SDS011;9287;49.456;11.064;2023-04-25T00:20:12;2.97;;;2.63;;
18322;SDS011;9287;49.456;11.064;2023-04-25T00:22:44;3.00;;;2.70;;
18322;SDS011;9287;49.456;11.064;2023-04-25T00:25:13;2.80;;;2.60;;
18322;SDS011;9287;49.456;11.064;2023-04-25T00:27:41;2.70;;;2.27;;
18322;SDS011;9287;49.456;11.064;2023-04-25T00:30:10;2.50;;;2.37;;
18322;SDS011;9287;49.456;11.064;2023-04-25T00:32:39;2.33;;;2.23;;
18322;SDS011;9287;49.456;11.064;2023-04-25T00:35:08;2.47;;;2.37;;
18322;SDS011;9287;49.456;11.064;2023-04-25T00:37:38;2.60;;;2.40;;
18322;SDS011;9287;49.456;11.064;2023-04-25T00:40:10;2.60;;;2.30;;
18322;SDS011;9287;49.456;11.064;2023-04-25T00:42:38;2.87;;;2.67;;
18322;SDS011;9287;49.456;11.064;2023-04-25T00:45:09;3.03;;;2.83;;
18322;SDS011;9287;49.456;11.064;2023-04-25T00:47:41;2.40;;;2.17;;
18322;SDS011;9287;49.456;11.064;2023-04-25T00:50:10;2.57;;;2.37;;
18322;SDS011;9287;49.456;11.064;2023-04-25T00:52:39;2.60;;;2.40;;
18322;SDS011;9287;49.456;11.064;2023-04-25T00:55:10;3.20;;;2.07;;
18322;SDS011;9287;49.456;11.064;2023-04-25T00:57:39;2.20;;;2.07;;
18322;SDS011;9287;49.456;11.064;2023-04-25T01:00:10;2.40;;;2.20;;
18322;SDS011;9287;49.456;11.064;2023-04-25T01:02:41;2.50;;;2.30;;
18322;SDS011;9287;49.456;11.064;2023-04-25T01:05:12;2.53;;;1.87;;
18322;SDS011;9287;49.456;11.064;2023-04-25T01:07:42;1.97;;;1.77;;
18322;SDS011;9287;49.456;11.064;2023-04-25T01:10:12;1.87;;;1.73;;
18322;SDS011;9287;49.456;11.064;2023-04-25T01:12:41;4.20;;;2.10;;
18322;SDS011;9287;49.456;11.064;2023-04-25T01:15:11;2.20;;;2.00;;
18322;SDS011;9287;49.456;11.064;2023-04-25T01:17:40;2.03;;;1.93;;
18322;SDS011;9287;49.456;11.064;2023-04-25T01:20:10;1.50;;;1.40;;
18322;SDS011;9287;49.456;11.064;2023-04-25T01:22:41;2.27;;;1.97;;
18322;SDS011;9287;49.456;11.064;2023-04-25T01:25:11;2.37;;;1.83;;
18322;SDS011;9287;49.456;11.064;2023-04-25T01:27:40;2.57;;;2.03;;
18322;SDS011;9287;49.456;11.064;2023-04-25T01:30:08;1.93;;;1.77;;
18322;SDS011;9287;49.456;11.064;2023-04-25T01:32:39;2.40;;;2.10;;
18322;SDS011;9287;49.456;11.064;2023-04-25T01:35:10;2.30;;;2.00;;
18322;SDS011;9287;49.456;11.064;2023-04-25T01:37:41;2.20;;;1.73;;
18322;SDS011;9287;49.456;11.064;2023-04-25T01:40:11;2.13;;;2.03;;
18322;SDS011;9287;49.456;11.064;2023-04-25T01:42:42;4.67;;;2.03;;
18322;SDS011;9287;49.456;11.064;2023-04-25T01:45:13;2.20;;;1.67;;
18322;SDS011;9287;49.456;11.064;2023-04-25T01:47:41;2.83;;;2.03;;
18322;SDS011;9287;49.456;11.064;2023-04-25T01:50:13;1.83;;;1.70;;
18322;SDS011;9287;49.456;11.064;2023-04-25T01:52:44;2.00;;;1.90;;
18322;SDS011;9287;49.456;11.064;2023-04-25T01:55:12;2.20;;;2.00;;
18322;SDS011;9287;49.456;11.064;2023-04-25T01:57:41;2.60;;;1.77;;
18322;SDS011;9287;49.456;11.064;2023-04-25T02:00:09;2.10;;;2.00;;
18322;SDS011;9287;49.456;11.064;2023-04-25T02:02:40;2.27;;;2.07;;
18322;SDS011;9287;49.456;11.064;2023-04-25T02:05:09;1.90;;;1.80;;
18322;SDS011;9287;49.456;11.064;2023-04-25T02:07:36;2.30;;;2.10;;
18322;SDS011;9287;49.456;11.064;2023-04-25T02:10:06;2.13;;;1.93;;
18322;SDS011;9287;49.456;11.064;2023-04-25T02:12:35;2.50;;;2.10;;
18322;SDS011;9287;49.456;11.064;2023-04-25T02:15:06;2.13;;;1.90;;
18322;SDS011;9287;49.456;11.064;2023-04-25T02:17:35;2.87;;;2.30;;
18322;SDS011;9287;49.456;11.064;2023-04-25T02:20:04;2.97;;;2.70;;
18322;SDS011;9287;49.456;11.064;2023-04-25T02:22:33;2.37;;;2.17;;
18322;SDS011;9287;49.456;11.064;2023-04-25T02:25:03;2.57;;;2.37;;
18322;SDS011;9287;49.456;11.064;2023-04-25T02:27:33;3.27;;;2.50;;
18322;SDS011;9287;49.456;11.064;2023-04-25T02:30:02;2.47;;;2.27;;
18322;SDS011;9287;49.456;11.064;2023-04-25T02:32:33;2.70;;;2.23;;
18322;SDS011;9287;49.456;11.064;2023-04-25T02:35:05;5.00;;;3.13;;
18322;SDS011;9287;49.456;11.064;2023-04-25T02:37:36;2.70;;;2.20;;
18322;SDS011;9287;49.456;11.064;2023-04-25T02:40:13;2.50;;;2.30;;
18322;SDS011;9287;49.456;11.064;2023-04-25T02:42:42;3.13;;;2.83;;
18322;SDS011;9287;49.456;11.064;2023-04-25T02:45:11;3.23;;;2.90;;
18322;SDS011;9287;49.456;11.064;2023-04-25T02:47:44;4.30;;;3.37;;
18322;SDS011;9287;49.456;11.064;2023-04-25T02:50:12;3.53;;;3.23;;
18322;SDS011;9287;49.456;11.064;2023-04-25T02:52:42;4.03;;;3.73;;
18322;SDS011;9287;49.456;11.064;2023-04-25T02:55:11;4.30;;;4.00;;
18322;SDS011;9287;49.456;11.064;2023-04-25T02:57:46;3.50;;;3.20;;
18322;SDS011;9287;49.456;11.064;2023-04-25T03:00:16;3.53;;;3.30;;
18322;SDS011;9287;49.456;11.064;2023-04-25T03:02:44;3.80;;;3.40;;
18322;SDS011;9287;49.456;11.064;2023-04-25T03:05:15;4.50;;;3.80;;
18322;SDS011;9287;49.456;11.064;2023-04-25T03:07:43;4.90;;;4.47;;
18322;SDS011;9287;49.456;11.064;2023-04-25T03:10:11;4.20;;;3.80;;
18322;SDS011;9287;49.456;11.064;2023-04-25T03:12:40;4.43;;;4.03;;
18322;SDS011;9287;49.456;11.064;2023-04-25T03:15:15;4.67;;;4.27;;
18322;SDS011;9287;49.456;11.064;2023-04-25T03:17:44;5.10;;;4.60;;
18322;SDS011;9287;49.456;11.064;2023-04-25T03:20:13;4.63;;;4.23;;
18322;SDS011;9287;49.456;11.064;2023-04-25T03:22:42;5.43;;;4.93;;
18322;SDS011;9287;49.456;11.064;2023-04-25T03:25:11;5.03;;;4.47;;
18322;SDS011;9287;49.456;11.064;2023-04-25T03:27:38;5.10;;;4.70;;
18322;SDS011;9287;49.456;11.064;2023-04-25T03:30:07;5.00;;;4.60;;
18322;SDS011;9287;49.456;11.064;2023-04-25T03:32:39;5.23;;;4.60;;
18322;SDS011;9287;49.456;11.064;2023-04-25T03:35:08;5.80;;;4.93;;
18322;SDS011;9287;49.456;11.064;2023-04-25T03:37:36;5.17;;;4.67;;
18322;SDS011;9287;49.456;11.064;2023-04-25T03:40:07;4.50;;;4.10;;
18322;SDS011;9287;49.456;11.064;2023-04-25T03:42:35;5.93;;;5.37;;
18322;SDS011;9287;49.456;11.064;2023-04-25T03:45:04;5.70;;;5.20;;
18322;SDS011;9287;49.456;11.064;2023-04-25T03:47:38;5.23;;;4.83;;
18322;SDS011;9287;49.456;11.064;2023-04-25T03:50:06;5.70;;;5.17;;
18322;SDS011;9287;49.456;11.064;2023-04-25T03:52:35;5.13;;;4.73;;
18322;SDS011;9287;49.456;11.064;2023-04-25T03:55:06;5.37;;;4.87;;
18322;SDS011;9287;49.456;11.064;2023-04-25T03:57:36;5.00;;;4.50;;
18322;SDS011;9287;49.456;11.064;2023-04-25T04:00:05;5.57;;;5.07;;
18322;SDS011;9287;49.456;11.064;2023-04-25T04:02:34;5.20;;;4.70;;
18322;SDS011;9287;49.456;11.064;2023-04-25T04:05:05;6.00;;;4.70;;
18322;SDS011;9287;49.456;11.064;2023-04-25T04:07:36;5.23;;;4.77;;
18322;SDS011;9287;49.456;11.064;2023-04-25T04:10:09;8.07;;;5.30;;
18322;SDS011;9287;49.456;11.064;2023-04-25T04:12:40;4.97;;;4.57;;
18322;SDS011;9287;49.456;11.064;2023-04-25T04:15:08;6.27;;;5.40;;
18322;SDS011;9287;49.456;11.064;2023-04-25T04:17:37;6.13;;;4.97;;
18322;SDS011;9287;49.456;11.064;2023-04-25T04:20:10;5.60;;;5.10;;
18322;SDS011;9287;49.456;11.064;2023-04-25T04:22:37;5.10;;;4.60;;
18322;SDS011;9287;49.456;11.064;2023-04-25T04:25:07;4.67;;;4.37;;
18322;SDS011;9287;49.456;11.064;2023-04-25T04:27:37;5.60;;;4.47;;
18322;SDS011;9287;49.456;11.064;2023-04-25T04:30:09;6.00;;;4.73;;
18322;SDS011;9287;49.456;11.064;2023-04-25T04:32:38;5.27;;;4.77;;
18322;SDS011;9287;49.456;11.064;2023-04-25T04:35:08;5.63;;;5.13;;
18322;SDS011;9287;49.456;11.064;2023-04-25T04:37:38;5.30;;;4.77;;
18322;SDS011;9287;49.456;11.064;2023-04-25T04:40:13;6.07;;;4.70;;
18322;SDS011;9287;49.456;11.064;2023-04-25T04:42:42;5.90;;;5.30;;
18322;SDS011;9287;49.456;11.064;2023-04-25T04:45:17;5.90;;;5.37;;
18322;SDS011;9287;49.456;11.064;2023-04-25T04:47:49;5.63;;;5.03;;
18322;SDS011;9287;49.456;11.064;2023-04-25T04:50:19;7.23;;;5.20;;
18322;SDS011;9287;49.456;11.064;2023-04-25T04:52:50;6.73;;;5.53;;
18322;SDS011;9287;49.456;11.064;2023-04-25T04:55:19;6.70;;;5.50;;
18322;SDS011;9287;49.456;11.064;2023-04-25T04:57:49;6.53;;;5.80;;
18322;SDS011;9287;49.456;11.064;2023-04-25T05:00:17;6.30;;;5.67;;
18322;SDS011;9287;49.456;11.064;2023-04-25T05:02:47;6.57;;;5.47;;
18322;SDS011;9287;49.456;11.064;2023-04-25T05:05:16;6.07;;;5.47;;
18322;SDS011;9287;49.456;11.064;2023-04-25T05:07:50;5.60;;;5.10;;
18322;SDS011;9287;49.456;11.064;2023-04-25T05:10:25;6.10;;;5.50;;
18322;SDS011;9287;49.456;11.064;2023-04-25T05:12:57;6.27;;;5.70;;
18322;SDS011;9287;49.456;11.064;2023-04-25T05:15:30;6.33;;;5.83;;
18322;SDS011;9287;49.456;11.064;2023-04-25T05:18:04;5.20;;;4.80;;
18322;SDS011;9287;49.456;11.064;2023-04-25T05:20:35;6.40;;;5.50;;
18322;SDS011;9287;49.456;11.064;2023-04-25T05:23:08;5.77;;;5.13;;
18322;SDS011;9287;49.456;11.064;2023-04-25T05:25:39;5.97;;;5.07;;
18322;SDS011;9287;49.456;11.064;2023-04-25T05:28:15;6.03;;;5.13;;
18322;SDS011;9287;49.456;11.064;2023-04-25T05:30:46;5.23;;;4.73;;
18322;SDS011;9287;49.456;11.064;2023-04-25T05:33:25;5.67;;;5.17;;
18322;SDS011;9287;49.456;11.064;2023-04-25T05:36:02;5.03;;;4.60;;
18322;SDS011;9287;49.456;11.064;2023-04-25T05:38:35;5.67;;;4.33;;
18322;SDS011;9287;49.456;11.064;2023-04-25T05:41:14;4.83;;;4.43;;
18322;SDS011;9287;49.456;11.064;2023-04-25T05:43:43;5.40;;;4.90;;
18322;SDS011;9287;49.456;11.064;2023-04-25T05:46:23;4.63;;;4.23;;
18322;SDS011;9287;49.456;11.064;2023-04-25T05:48:52;4.83;;;4.43;;
18322;SDS011;9287;49.456;11.064;2023-04-25T05:51:19;5.00;;;4.60;;
18322;SDS011;9287;49.456;11.064;2023-04-25T05:54:01;6.33;;;4.77;;
18322;SDS011;9287;49.456;11.064;2023-04-25T05:56:29;4.83;;;4.40;;
18322;SDS011;9287;49.456;11.064;2023-04-25T05:58:57;4.43;;;4.03;;
18322;SDS011;9287;49.456;11.064;2023-04-25T06:01:25;4.77;;;4.33;;
18322;SDS011;9287;49.456;11.064;2023-04-25T06:03:52;5.63;;;4.87;;
18322;SDS011;9287;49.456;11.064;2023-04-25T06:06:21;7.13;;;4.90;;
18322;SDS011;9287;49.456;11.064;2023-04-25T06:08:49;5.47;;;4.97;;
18322;SDS011;9287;49.456;11.064;2023-04-25T06:11:18;4.33;;;4.00;;
18322;SDS011;9287;49.456;11.064;2023-04-25T06:13:46;5.90;;;5.27;;
18322;SDS011;9287;49.456;11.064;2023-04-25T06:16:14;5.50;;;4.77;;
18322;SDS011;9287;49.456;11.064;2023-04-25T06:18:42;6.60;;;6.00;;
18322;SDS011;9287;49.456;11.064;2023-04-25T06:21:11;5.70;;;5.17;;
18322;SDS011;9287;49.456;11.064;2023-04-25T06:23:39;6.77;;;6.13;;
18322;SDS011;9287;49.456;11.064;2023-04-25T06:26:07;7.00;;;6.27;;
18322;SDS011;9287;49.456;11.064;2023-04-25T06:28:36;6.17;;;5.67;;
18322;SDS011;9287;49.456;11.064;2023-04-25T06:31:03;6.87;;;6.27;;
18322;SDS011;9287;49.456;11.064;2023-04-25T06:33:31;7.03;;;6.00;;
18322;SDS011;9287;49.456;11.064;2023-04-25T06:35:59;6.97;;;6.30;;
18322;SDS011;9287;49.456;11.064;2023-04-25T06:38:27;7.07;;;6.47;;
18322;SDS011;9287;49.456;11.064;2023-04-25T06:40:55;7.23;;;6.57;;
18322;SDS011;9287;49.456;11.064;2023-04-25T06:43:22;7.60;;;6.80;;
18322;SDS011;9287;49.456;11.064;2023-04-25T06:45:52;8.47;;;7.07;;
18322;SDS011;9287;49.456;11.064;2023-04-25T06:48:20;7.97;;;7.17;;
18322;SDS011;9287;49.456;11.064;2023-04-25T06:50:47;7.87;;;7.07;;
18322;SDS011;9287;49.456;11.064;2023-04-25T06:53:15;7.97;;;7.20;;
18322;SDS011;9287;49.456;11.064;2023-04-25T06:55:43;8.50;;;6.73;;
18322;SDS011;9287;49.456;11.064;2023-04-25T06:58:11;8.70;;;7.80;;
18322;SDS011;9287;49.456;11.064;2023-04-25T07:00:39;8.93;;;8.13;;
18322;SDS011;9287;49.456;11.064;2023-04-25T07:03:08;9.10;;;7.80;;
18322;SDS011;9287;49.456;11.064;2023-04-25T07:05:36;8.60;;;7.23;;
18322;SDS011;9287;49.456;11.064;2023-04-25T07:08:04;8.37;;;7.47;;
18322;SDS011;9287;49.456;11.064;2023-04-25T07:10:32;7.43;;;6.43;;
18322;SDS011;9287;49.456;11.064;2023-04-25T07:13:00;6.87;;;5.97;;
18322;SDS011;9287;49.456;11.064;2023-04-25T07:15:27;6.23;;;5.70;;
18322;SDS011;9287;49.456;11.064;2023-04-25T07:17:55;6.67;;;5.97;;
18322;SDS011;9287;49.456;11.064;2023-04-25T07:20:25;6.90;;;5.53;;
18322;SDS011;9287;49.456;11.064;2023-04-25T07:22:54;5.30;;;4.80;;
18322;SDS011;9287;49.456;11.064;2023-04-25T07:25:22;5.37;;;4.93;;
18322;SDS011;9287;49.456;11.064;2023-04-25T07:27:50;5.40;;;4.80;;
18322;SDS011;9287;49.456;11.064;2023-04-25T07:30:17;3.63;;;3.33;;
18322;SDS011;9287;49.456;11.064;2023-04-25T07:32:45;3.57;;;3.27;;
18322;SDS011;9287;49.456;11.064;2023-04-25T07:35:13;3.63;;;3.30;;
18322;SDS011;9287;49.456;11.064;2023-04-25T07:37:43;3.70;;;3.37;;
18322;SDS011;9287;49.456;11.064;2023-04-25T07:40:10;3.87;;;3.10;;
18322;SDS011;9287;49.456;11.064;2023-04-25T07:42:38;3.40;;;3.10;;
18322;SDS011;9287;49.456;11.064;2023-04-25T07:45:07;4.00;;;3.40;;
18322;SDS011;9287;49.456;11.064;2023-04-25T07:47:35;5.60;;;3.87;;
18322;SDS011;9287;49.456;11.064;2023-04-25T07:50:05;3.97;;;3.47;;
18322;SDS011;9287;49.456;11.064;2023-04-25T07:52:33;4.63;;;3.50;;
18322;SDS011;9287;49.456;11.064;2023-04-25T07:55:03;3.63;;;3.30;;
18322;SDS011;9287;49.456;11.064;2023-04-25T07:57:31;4.40;;;4.10;;
18322;SDS011;9287;49.456;11.064;2023-04-25T07:59:59;4.23;;;3.93;;
18322;SDS011;9287;49.456;11.064;2023-04-25T08:02:26;4.77;;;3.80;;
18322;SDS011;9287;49.456;11.064;2023-04-25T08:04:54;3.93;;;3.63;;
18322;SDS011;9287;49.456;11.064;2023-04-25T08:07:22;3.07;;;2.60;;
18322;SDS011;9287;49.456;11.064;2023-04-25T08:09:51;5.00;;;3.10;;
18322;SDS011;9287;49.456;11.064;2023-04-25T08:12:20;3.80;;;2.53;;
18322;SDS011;9287;49.456;11.064;2023-04-25T08:14:48;4.53;;;2.60;;
18322;SDS011;9287;49.456;11.064;2023-04-25T08:17:16;3.53;;;2.40;;
18322;SDS011;9287;49.456;11.064;2023-04-25T08:19:44;4.97;;;2.60;;
18322;SDS011;9287;49.456;11.064;2023-04-25T08:22:12;3.20;;;2.60;;
18322;SDS011;9287;49.456;11.064;2023-04-25T08:24:41;6.13;;;2.77;;
18322;SDS011;9287;49.456;11.064;2023-04-25T08:27:09;3.20;;;2.30;;
18322;SDS011;9287;49.456;11.064;2023-04-25T08:29:38;3.00;;;2.10;;
18322;SDS011;9287;49.456;11.064;2023-04-25T08:32:06;3.53;;;2.20;;
18322;SDS011;9287;49.456;11.064;2023-04-25T08:34:34;3.73;;;2.70;;
18322;SDS011;9287;49.456;11.064;2023-04-25T08:37:03;2.70;;;2.50;;
18322;SDS011;9287;49.456;11.064;2023-04-25T08:39:31;4.30;;;2.53;;
18322;SDS011;9287;49.456;11.064;2023-04-25T08:41:59;5.23;;;2.83;;
18322;SDS011;9287;49.456;11.064;2023-04-25T08:44:30;3.67;;;2.60;;
18322;SDS011;9287;49.456;11.064;2023-04-25T08:46:59;3.27;;;2.93;;
18322;SDS011;9287;49.456;11.064;2023-04-25T08:49:28;2.73;;;2.17;;
18322;SDS011;9287;49.456;11.064;2023-04-25T08:51:58;4.20;;;3.10;;
18322;SDS011;9287;49.456;11.064;2023-04-25T08:54:27;5.10;;;2.80;;
18322;SDS011;9287;49.456;11.064;2023-04-25T08:57:02;3.47;;;2.83;;
18322;SDS011;9287;49.456;11.064;2023-04-25T08:59:30;3.23;;;2.93;;
18322;SDS011;9287;49.456;11.064;2023-04-25T09:02:02;3.90;;;3.00;;
18322;SDS011;9287;49.456;11.064;2023-04-25T09:04:30;3.13;;;2.93;;
18322;SDS011;9287;49.456;11.064;2023-04-25T09:06:59;3.53;;;3.23;;
18322;SDS011;9287;49.456;11.064;2023-04-25T09:09:26;5.37;;;3.43;;
18322;SDS011;9287;49.456;11.064;2023-04-25T09:11:54;4.20;;;3.73;;
18322;SDS011;9287;49.456;11.064;2023-04-25T09:14:23;3.87;;;3.60;;
18322;SDS011;9287;49.456;11.064;2023-04-25T09:16:59;4.43;;;4.03;;
18322;SDS011;9287;49.456;11.064;2023-04-25T09:19:30;6.33;;;4.90;;
18322;SDS011;9287;49.456;11.064;2023-04-25T09:22:02;4.97;;;4.67;;
18322;SDS011;9287;49.456;11.064;2023-04-25T09:24:32;5.90;;;4.37;;
18322;SDS011;9287;49.456;11.064;2023-04-25T09:27:02;4.93;;;4.30;;
18322;SDS011;9287;49.456;11.064;2023-04-25T09:29:31;4.47;;;4.07;;
18322;SDS011;9287;49.456;11.064;2023-04-25T09:32:13;3.90;;;3.60;;
18322;SDS011;9287;49.456;11.064;2023-04-25T09:34:45;5.73;;;3.03;;
18322;SDS011;9287;49.456;11.064;2023-04-25T09:37:19;2.83;;;2.50;;
18322;SDS011;9287;49.456;11.064;2023-04-25T09:39:49;2.97;;;2.25;;
18322;SDS011;9287;49.456;11.064;2023-04-25T09:42:21;2.60;;;1.98;;
18322;SDS011;9287;49.456;11.064;2023-04-25T09:44:51;2.70;;;2.20;;
18322;SDS011;9287;49.456;11.064;2023-04-25T09:47:22;3.97;;;1.98;;
18322;SDS011;9287;49.456;11.064;2023-04-25T09:49:54;2.28;;;2.08;;
18322;SDS011;9287;49.456;11.064;2023-04-25T09:52:24;1.75;;;1.58;;
18322;SDS011;9287;49.456;11.064;2023-04-25T09:54:52;1.85;;;1.70;;
18322;SDS011;9287;49.456;11.064;2023-04-25T09:57:21;1.75;;;1.60;;
18322;SDS011;9287;49.456;11.064;2023-04-25T09:59:52;1.88;;;1.50;;
18322;SDS011;9287;49.456;11.064;2023-04-25T10:02:25;1.73;;;1.63;;
18322;SDS011;9287;49.456;11.064;2023-04-25T10:04:55;2.53;;;1.95;;
18322;SDS011;9287;49.456;11.064;2023-04-25T10:07:25;1.70;;;1.60;;
18322;SDS011;9287;49.456;11.064;2023-04-25T10:09:58;3.13;;;2.83;;
18322;SDS011;9287;49.456;11.064;2023-04-25T10:12:30;2.88;;;2.58;;
18322;SDS011;9287;49.456;11.064;2023-04-25T10:15:00;2.58;;;2.33;;
18322;SDS011;9287;49.456;11.064;2023-04-25T10:17:31;1.93;;;1.80;;
18322;SDS011;9287;49.456;11.064;2023-04-25T10:20:03;3.13;;;2.83;;
18322;SDS011;9287;49.456;11.064;2023-04-25T10:22:35;2.47;;;2.20;;
18322;SDS011;9287;49.456;11.064;2023-04-25T10:25:05;4.23;;;2.43;;
18322;SDS011;9287;49.456;11.064;2023-04-25T10:27:38;2.33;;;1.87;;
18322;SDS011;9287;49.456;11.064;2023-04-25T10:30:16;2.53;;;2.10;;
18322;SDS011;9287;49.456;11.064;2023-04-25T10:32:47;2.13;;;1.30;;
18322;SDS011;9287;49.456;11.064;2023-04-25T10:35:26;2.20;;;1.23;;
18322;SDS011;9287;49.456;11.064;2023-04-25T10:38:00;2.03;;;1.13;;
18322;SDS011;9287;49.456;11.064;2023-04-25T10:40:31;3.33;;;1.10;;
18322;SDS011;9287;49.456;11.064;2023-04-25T10:46:17;1.40;;;1.30;;
18322;SDS011;9287;49.456;11.064;2023-04-25T10:48:49;2.20;;;1.23;;
18322;SDS011;9287;49.456;11.064;2023-04-25T10:51:20;2.10;;;1.40;;
18322;SDS011;9287;49.456;11.064;2023-04-25T10:53:56;1.10;;;1.00;;
18322;SDS011;9287;49.456;11.064;2023-04-25T10:56:28;1.27;;;1.00;;
18322;SDS011;9287;49.456;11.064;2023-04-25T10:59:06;2.07;;;0.87;;
18322;SDS011;9287;49.456;11.064;2023-04-25T11:01:44;1.57;;;1.00;;
18322;SDS011;9287;49.456;11.064;2023-04-25T11:04:19;1.53;;;1.00;;
18322;SDS011;9287;49.456;11.064;2023-04-25T11:07:00;1.63;;;0.83;;
18322;SDS011;9287;49.456;11.064;2023-04-25T11:09:35;1.37;;;0.70;;
18322;SDS011;9287;49.456;11.064;2023-04-25T11:12:07;1.63;;;0.90;;
18322;SDS011;9287;49.456;11.064;2023-04-25T11:14:38;1.90;;;0.90;;
18322;SDS011;9287;49.456;11.064;2023-04-25T11:17:10;1.70;;;0.70;;
18322;SDS011;9287;49.456;11.064;2023-04-25T11:19:38;1.27;;;0.80;;
18322;SDS011;9287;49.456;11.064;2023-04-25T11:22:08;2.47;;;0.83;;
18322;SDS011;9287;49.456;11.064;2023-04-25T11:24:37;1.10;;;0.87;;
18322;SDS011;9287;49.456;11.064;2023-04-25T11:27:05;1.60;;;0.80;;
18322;SDS011;9287;49.456;11.064;2023-04-25T11:29:33;0.80;;;0.80;;
18322;SDS011;9287;49.456;11.064;2023-04-25T11:32:01;1.30;;;0.80;;
18322;SDS011;9287;49.456;11.064;2023-04-25T11:34:30;1.87;;;0.70;;
18322;SDS011;9287;49.456;11.064;2023-04-25T11:36:59;1.47;;;0.60;;
18322;SDS011;9287;49.456;11.064;2023-04-25T11:39:29;1.33;;;0.60;;
18322;SDS011;9287;49.456;11.064;2023-04-25T11:41:57;1.17;;;0.60;;
18322;SDS011;9287;49.456;11.064;2023-04-25T11:44:28;0.97;;;0.60;;
18322;SDS011;9287;49.456;11.064;2023-04-25T11:46:57;0.93;;;0.60;;
18322;SDS011;9287;49.456;11.064;2023-04-25T11:49:25;2.20;;;0.70;;
18322;SDS011;9287;49.456;11.064;2023-04-25T11:51:58;0.60;;;0.60;;
18322;SDS011;9287;49.456;11.064;2023-04-25T11:54:25;1.27;;;0.60;;
18322;SDS011;9287;49.456;11.064;2023-04-25T11:56:55;1.40;;;0.80;;
18322;SDS011;9287;49.456;11.064;2023-04-25T11:59:24;0.80;;;0.50;;
18322;SDS011;9287;49.456;11.064;2023-04-25T12:01:53;0.50;;;0.50;;
18322;SDS011;9287;49.456;11.064;2023-04-25T12:04:21;0.93;;;0.50;;
18322;SDS011;9287;49.456;11.064;2023-04-25T12:06:51;0.73;;;0.50;;
18322;SDS011;9287;49.456;11.064;2023-04-25T12:09:21;0.63;;;0.50;;
18322;SDS011;9287;49.456;11.064;2023-04-25T12:11:56;1.70;;;0.50;;
18322;SDS011;9287;49.456;11.064;2023-04-25T12:14:25;1.40;;;0.50;;
18322;SDS011;9287;49.456;11.064;2023-04-25T12:16:55;0.60;;;0.50;;
18322;SDS011;9287;49.456;11.064;2023-04-25T12:19:24;1.13;;;0.50;;
18322;SDS011;9287;49.456;11.064;2023-04-25T12:21:53;0.70;;;0.50;;
18322;SDS011;9287;49.456;11.064;2023-04-25T12:24:25;0.73;;;0.50;;
18322;SDS011;9287;49.456;11.064;2023-04-25T12:26:59;1.07;;;0.60;;
18322;SDS011;9287;49.456;11.064;2023-04-25T12:29:30;0.77;;;0.70;;
18322;SDS011;9287;49.456;11.064;2023-04-25T12:32:14;1.37;;;0.60;;
18322;SDS011;9287;49.456;11.064;2023-04-25T12:34:42;0.77;;;0.60;;
18322;SDS011;9287;49.456;11.064;2023-04-25T12:37:11;0.50;;;0.50;;
18322;SDS011;9287;49.456;11.064;2023-04-25T12:39:39;0.60;;;0.60;;
18322;SDS011;9287;49.456;11.064;2023-04-25T12:42:08;0.67;;;0.63;;
18322;SDS011;9287;49.456;11.064;2023-04-25T12:44:38;1.37;;;0.60;;
18322;SDS011;9287;49.456;11.064;2023-04-25T12:47:06;0.60;;;0.60;;
18322;SDS011;9287;49.456;11.064;2023-04-25T12:49:34;0.67;;;0.67;;
18322;SDS011;9287;49.456;11.064;2023-04-25T12:52:02;1.37;;;0.73;;
18322;SDS011;9287;49.456;11.064;2023-04-25T12:54:29;0.60;;;0.60;;
18322;SDS011;9287;49.456;11.064;2023-04-25T12:56:57;3.97;;;0.80;;
18322;SDS011;9287;49.456;11.064;2023-04-25T12:59:27;1.03;;;0.70;;
18322;SDS011;9287;49.456;11.064;2023-04-25T13:01:54;4.73;;;0.80;;
18322;SDS011;9287;49.456;11.064;2023-04-25T13:04:22;2.37;;;0.53;;
18322;SDS011;9287;49.456;11.064;2023-04-25T13:06:50;1.03;;;0.80;;
18322;SDS011;9287;49.456;11.064;2023-04-25T13:09:18;1.13;;;0.80;;
18322;SDS011;9287;49.456;11.064;2023-04-25T13:11:46;1.43;;;1.13;;
18322;SDS011;9287;49.456;11.064;2023-04-25T13:14:14;0.80;;;0.80;;
18322;SDS011;9287;49.456;11.064;2023-04-25T13:16:43;2.93;;;0.80;;
18322;SDS011;9287;49.456;11.064;2023-04-25T13:19:12;0.83;;;0.70;;
18322;SDS011;9287;49.456;11.064;2023-04-25T13:21:39;1.00;;;0.70;;
18322;SDS011;9287;49.456;11.064;2023-04-25T13:24:07;1.80;;;0.80;;
18322;SDS011;9287;49.456;11.064;2023-04-25T13:26:35;1.07;;;0.60;;
18322;SDS011;9287;49.456;11.064;2023-04-25T13:29:03;0.93;;;0.53;;
18322;SDS011;9287;49.456;11.064;2023-04-25T13:31:31;1.73;;;0.80;;
18322;SDS011;9287;49.456;11.064;2023-04-25T13:34:00;1.00;;;0.90;;
18322;SDS011;9287;49.456;11.064;2023-04-25T13:36:28;0.73;;;0.73;;
18322;SDS011;9287;49.456;11.064;2023-04-25T13:38:56;1.00;;;0.80;;
18322;SDS011;9287;49.456;11.064;2023-04-25T13:41:23;1.03;;;0.80;;
18322;SDS011;9287;49.456;11.064;2023-04-25T13:43:51;0.97;;;0.80;;
18322;SDS011;9287;49.456;11.064;2023-04-25T13:46:19;1.37;;;1.10;;
18322;SDS011;9287;49.456;11.064;2023-04-25T13:49:08;3.13;;;1.00;;
18322;SDS011;9287;49.456;11.064;2023-04-25T13:51:38;1.30;;;0.97;;
18322;SDS011;9287;49.456;11.064;2023-04-25T13:54:07;2.70;;;1.00;;
18322;SDS011;9287;49.456;11.064;2023-04-25T13:56:34;2.20;;;1.00;;
18322;SDS011;9287;49.456;11.064;2023-04-25T13:59:02;0.80;;;0.80;;
18322;SDS011;9287;49.456;11.064;2023-04-25T14:01:30;1.17;;;1.00;;
18322;SDS011;9287;49.456;11.064;2023-04-25T14:04:00;1.50;;;1.07;;
18322;SDS011;9287;49.456;11.064;2023-04-25T14:06:32;1.17;;;0.87;;
18322;SDS011;9287;49.456;11.064;2023-04-25T14:09:00;1.20;;;1.07;;
18322;SDS011;9287;49.456;11.064;2023-04-25T14:11:27;1.27;;;1.17;;
18322;SDS011;9287;49.456;11.064;2023-04-25T14:13:56;1.23;;;1.00;;
18322;SDS011;9287;49.456;11.064;2023-04-25T14:16:23;1.63;;;1.10;;
18322;SDS011;9287;49.456;11.064;2023-04-25T14:18:52;2.57;;;1.40;;
18322;SDS011;9287;49.456;11.064;2023-04-25T14:21:20;1.70;;;1.30;;
18322;SDS011;9287;49.456;11.064;2023-04-25T14:23:49;1.20;;;1.03;;
18322;SDS011;9287;49.456;11.064;2023-04-25T14:26:18;1.20;;;1.10;;
18322;SDS011;9287;49.456;11.064;2023-04-25T14:28:46;3.43;;;1.20;;
18322;SDS011;9287;49.456;11.064;2023-04-25T14:31:13;1.67;;;1.00;;
18322;SDS011;9287;49.456;11.064;2023-04-25T14:33:41;1.67;;;1.30;;
18322;SDS011;9287;49.456;11.064;2023-04-25T14:36:09;2.10;;;1.40;;
18322;SDS011;9287;49.456;11.064;2023-04-25T14:38:37;4.40;;;1.40;;
18322;SDS011;9287;49.456;11.064;2023-04-25T14:41:06;3.00;;;1.50;;
18322;SDS011;9287;49.456;11.064;2023-04-25T14:43:34;3.10;;;1.20;;
18322;SDS011;9287;49.456;11.064;2023-04-25T14:46:02;2.57;;;1.47;;
18322;SDS011;9287;49.456;11.064;2023-04-25T14:48:30;1.93;;;1.73;;
18322;SDS011;9287;49.456;11.064;2023-04-25T14:50:58;2.37;;;1.40;;
18322;SDS011;9287;49.456;11.064;2023-04-25T14:53:28;4.43;;;2.00;;
18322;SDS011;9287;49.456;11.064;2023-04-25T14:55:56;2.13;;;1.83;;
18322;SDS011;9287;49.456;11.064;2023-04-25T14:58:26;2.50;;;1.50;;
18322;SDS011;9287;49.456;11.064;2023-04-25T15:00:54;2.33;;;1.70;;
18322;SDS011;9287;49.456;11.064;2023-04-25T15:03:22;1.70;;;1.60;;
18322;SDS011;9287;49.456;11.064;2023-04-25T15:05:50;2.30;;;1.40;;